Time;durP1;ratioP1;P1;durP2;ratioP2;P2;SDS_P1;SDS_P2;PMS_P1;PMS_P2;Temp;Humidity;BMP_temperature;BMP_pressure;BME280_temperature;BME280_humidity;BME280_pressure;Samples;Min_cycle;Max_cycle;Signal;HPM_P1;HPM_P2
2023/06/24 00:00:29;;;;;;;4.38;3.13;;;16.70;99.90;;;;;;5022225;28;20168;-32
2023/06/24 00:02:56;;;;;;;4.20;3.43;;;16.70;99.90;;;;;;5021111;28;20076;-33
2023/06/24 00:05:21;;;;;;;4.82;3.88;;;16.80;99.90;;;;;;5024264;28;20088;-35
2023/06/24 00:07:47;;;;;;;5.18;3.83;;;16.70;99.90;;;;;;5021561;28;20025;-35
2023/06/24 00:10:14;;;;;;;5.15;3.70;;;16.80;99.90;;;;;;5019835;28;20657;-34
2023/06/24 00:12:41;;;;;;;4.68;3.70;;;16.80;99.90;;;;;;5023870;28;20013;-33
2023/06/24 00:15:11;;;;;;;5.55;4.13;;;16.70;99.90;;;;;;5023011;28;20034;-33
2023/06/24 00:17:37;;;;;;;5.18;3.83;;;16.70;99.90;;;;;;5019592;28;20509;-38
2023/06/24 00:20:08;;;;;;;4.25;3.17;;;16.70;99.90;;;;;;5023537;28;20128;-33
2023/06/24 00:22:34;;;;;;;6.10;3.47;;;16.70;99.90;;;;;;5021517;28;20609;-33
2023/06/24 00:25:00;;;;;;;7.10;4.13;;;16.70;99.90;;;;;;5024318;28;20041;-33
2023/06/24 00:27:26;;;;;;;5.57;4.22;;;16.70;99.90;;;;;;5024416;28;20056;-34
2023/06/24 00:29:51;;;;;;;6.22;4.40;;;16.60;99.90;;;;;;5019843;28;20387;-37
2023/06/24 00:32:17;;;;;;;6.63;3.90;;;16.60;99.90;;;;;;5018633;28;20026;-33
2023/06/24 00:34:43;;;;;;;6.13;4.07;;;16.70;99.90;;;;;;5004837;28;20124;-41
2023/06/24 00:37:09;;;;;;;6.05;3.83;;;16.70;99.90;;;;;;5021515;28;20026;-41
2023/06/24 00:39:35;;;;;;;4.97;3.38;;;16.60;99.90;;;;;;5024105;28;20034;-42
2023/06/24 00:42:00;;;;;;;3.90;3.50;;;16.70;99.90;;;;;;5022774;28;20132;-40
2023/06/24 00:44:26;;;;;;;5.75;3.90;;;16.60;99.90;;;;;;5021490;28;20128;-41
2023/06/24 00:46:53;;;;;;;5.05;3.92;;;16.50;99.90;;;;;;5023946;28;20508;-41
2023/06/24 00:49:19;;;;;;;5.45;3.80;;;16.60;99.90;;;;;;5019068;28;20029;-35
2023/06/24 00:51:50;;;;;;;5.78;3.80;;;16.60;99.90;;;;;;5020460;28;20033;-41
2023/06/24 00:54:16;;;;;;;6.45;4.07;;;16.60;99.90;;;;;;5020027;28;20667;-41
2023/06/24 00:56:42;;;;;;;5.43;3.75;;;16.60;99.90;;;;;;5019625;28;20025;-41
2023/06/24 00:59:12;;;;;;;5.03;3.55;;;16.60;99.90;;;;;;5002225;28;20029;-41
2023/06/24 01:01:38;;;;;;;6.43;3.90;;;16.60;99.90;;;;;;5018542;28;20033;-41
2023/06/24 01:04:04;;;;;;;4.85;3.50;;;16.60;99.90;;;;;;5026625;28;20025;-41
2023/06/24 01:06:30;;;;;;;4.72;3.70;;;16.60;99.90;;;;;;5025299;28;20026;-41
2023/06/24 01:09:02;;;;;;;4.00;3.58;;;16.50;99.90;;;;;;5020885;28;20041;-40
2023/06/24 01:11:28;;;;;;;5.25;3.45;;;16.40;99.90;;;;;;5020881;28;20080;-41
2023/06/24 01:13:54;;;;;;;4.05;3.22;;;16.40;99.90;;;;;;5023386;28;20091;-40
2023/06/24 01:16:29;;;;;;;3.97;3.05;;;16.40;99.90;;;;;;5020629;28;20026;-41
2023/06/24 01:19:01;;;;;;;4.32;2.95;;;16.40;99.90;;;;;;5019578;28;20045;-41
2023/06/24 01:21:53;;;;;;;3.50;3.20;;;16.40;99.90;;;;;;5023047;28;20036;-41
2023/06/24 01:24:31;;;;;;;4.32;3.33;;;16.50;99.90;;;;;;5020809;28;20505;-40
2023/06/24 01:27:25;;;;;;;5.18;3.40;;;16.50;99.90;;;;;;5019876;28;20045;-41
2023/06/24 01:30:09;;;;;;;3.83;3.08;;;16.60;99.90;;;;;;5020617;28;20033;-39
2023/06/24 01:32:44;;;;;;;4.45;3.15;;;16.60;99.90;;;;;;5018202;28;20033;-42
2023/06/24 01:35:20;;;;;;;5.07;3.40;;;16.60;99.90;;;;;;5016168;28;20029;-42
2023/06/24 01:37:51;;;;;;;4.22;3.33;;;16.60;99.90;;;;;;5023638;28;20074;-41
2023/06/24 01:40:37;;;;;;;4.88;3.65;;;16.60;99.90;;;;;;5021614;28;20041;-39
2023/06/24 01:43:05;;;;;;;4.82;3.78;;;16.50;99.90;;;;;;5022842;28;20057;-42
2023/06/24 01:45:36;;;;;;;5.28;3.58;;;16.40;99.90;;;;;;5023166;28;20479;-38
2023/06/24 01:48:11;;;;;;;5.80;3.60;;;16.40;99.90;;;;;;5022886;28;20033;-41
2023/06/24 01:50:39;;;;;;;4.35;3.30;;;16.40;99.90;;;;;;5022176;28;20076;-40
2023/06/24 01:53:07;;;;;;;4.85;4.00;;;16.40;99.90;;;;;;5019254;28;20127;-41
2023/06/24 01:55:34;;;;;;;8.55;4.30;;;16.40;99.90;;;;;;5020555;28;20060;-40
2023/06/24 01:58:03;;;;;;;5.00;4.13;;;16.40;99.90;;;;;;5020016;28;20033;-40
2023/06/24 02:00:29;;;;;;;7.15;4.53;;;16.20;99.90;;;;;;5013885;28;20045;-35
2023/06/24 02:02:55;;;;;;;7.45;4.35;;;16.10;99.90;;;;;;5019698;28;20084;-41
2023/06/24 02:05:22;;;;;;;4.78;4.10;;;16.00;99.90;;;;;;5019260;28;20097;-41
2023/06/24 02:07:49;;;;;;;6.83;4.47;;;15.90;99.90;;;;;;5020929;28;20032;-42
2023/06/24 02:10:16;;;;;;;7.20;4.53;;;15.90;99.90;;;;;;5024167;28;20092;-36
2023/06/24 02:12:43;;;;;;;4.85;4.22;;;15.80;99.90;;;;;;5022171;28;20032;-39
2023/06/24 02:15:10;;;;;;;5.43;4.20;;;15.90;99.90;;;;;;5022191;28;20112;-42
2023/06/24 02:17:37;;;;;;;5.32;4.30;;;15.90;99.90;;;;;;5021489;28;20928;-37
2023/06/24 02:20:08;;;;;;;5.65;4.40;;;16.00;99.90;;;;;;5024722;28;20101;-41
2023/06/24 02:22:35;;;;;;;7.10;4.75;;;16.00;99.90;;;;;;5025284;28;20434;-40
2023/06/24 02:25:02;;;;;;;6.72;4.70;;;16.10;99.90;;;;;;5025720;28;20060;-41
2023/06/24 02:27:29;;;;;;;7.78;4.45;;;16.10;99.90;;;;;;5022576;28;20026;-42
2023/06/24 02:29:55;;;;;;;4.95;4.30;;;16.10;99.90;;;;;;5021168;28;20061;-41
2023/06/24 02:32:21;;;;;;;6.18;4.40;;;16.10;99.90;;;;;;5021876;28;20065;-36
2023/06/24 02:34:46;;;;;;;5.68;4.18;;;16.10;99.90;;;;;;5025447;28;20481;-40
2023/06/24 02:37:12;;;;;;;6.18;4.63;;;16.10;99.90;;;;;;5023478;28;20032;-39
2023/06/24 02:39:43;;;;;;;5.35;4.40;;;16.10;99.90;;;;;;5021761;28;20491;-41
2023/06/24 02:42:12;;;;;;;6.45;4.10;;;16.10;99.90;;;;;;5020661;28;20517;-41
2023/06/24 02:44:42;;;;;;;5.72;4.20;;;16.10;99.90;;;;;;5025691;28;20577;-33
2023/06/24 02:47:11;;;;;;;6.15;4.70;;;16.10;99.90;;;;;;5026816;28;20406;-34
2023/06/24 02:49:38;;;;;;;5.72;4.30;;;16.10;99.90;;;;;;5025101;28;20080;-35
2023/06/24 02:52:05;;;;;;;7.18;4.43;;;16.20;99.90;;;;;;5025192;28;20014;-32
2023/06/24 02:54:31;;;;;;;7.93;4.45;;;16.30;99.90;;;;;;5024714;28;20041;-42
2023/06/24 02:56:58;;;;;;;7.63;4.85;;;16.20;99.90;;;;;;5020857;28;20434;-40
2023/06/24 02:59:24;;;;;;;6.80;4.32;;;16.20;99.90;;;;;;5020910;28;20030;-38
2023/06/24 03:01:51;;;;;;;6.30;4.20;;;16.10;99.90;;;;;;5021071;28;20503;-40
2023/06/24 03:04:18;;;;;;;6.70;4.43;;;16.10;99.90;;;;;;5019380;28;20380;-35
2023/06/24 03:06:44;;;;;;;5.67;4.20;;;16.10;99.90;;;;;;5023364;28;20044;-40
2023/06/24 03:09:10;;;;;;;6.22;4.40;;;16.20;99.90;;;;;;5019920;28;20293;-42
2023/06/24 03:11:45;;;;;;;6.85;4.60;;;16.20;99.90;;;;;;5019928;28;20037;-38
2023/06/24 03:14:11;;;;;;;6.30;4.38;;;16.10;99.90;;;;;;5023268;28;20519;-41
2023/06/24 03:16:40;;;;;;;4.75;4.10;;;16.10;99.90;;;;;;5025229;28;20049;-40
2023/06/24 03:19:06;;;;;;;5.72;4.03;;;16.10;99.90;;;;;;5026626;28;20107;-42
2023/06/24 03:21:32;;;;;;;6.28;4.20;;;16.20;99.90;;;;;;5021915;28;20080;-39
2023/06/24 03:23:59;;;;;;;7.80;4.60;;;16.20;99.90;;;;;;5024762;28;20025;-42
2023/06/24 03:26:35;;;;;;;6.47;4.30;;;16.30;99.90;;;;;;5020831;28;20055;-42
2023/06/24 03:29:01;;;;;;;6.30;4.72;;;16.30;99.90;;;;;;5021850;28;20037;-40
2023/06/24 03:31:27;;;;;;;5.10;4.03;;;16.20;99.90;;;;;;5020667;28;20060;-41
2023/06/24 03:33:52;;;;;;;5.63;4.32;;;16.20;99.90;;;;;;5021799;28;20041;-41
2023/06/24 03:36:18;;;;;;;8.15;4.50;;;16.20;99.90;;;;;;5023023;28;20474;-42
2023/06/24 03:38:44;;;;;;;6.05;4.25;;;16.10;99.90;;;;;;5021421;28;20033;-42
2023/06/24 03:41:09;;;;;;;5.57;3.78;;;16.10;99.90;;;;;;5018884;28;20063;-41
2023/06/24 03:43:35;;;;;;;6.05;4.70;;;16.20;99.90;;;;;;5019631;28;20037;-39
2023/06/24 03:46:02;;;;;;;5.88;4.35;;;16.10;99.90;;;;;;5025771;28;20029;-41
2023/06/24 03:48:27;;;;;;;6.13;4.20;;;16.10;99.90;;;;;;5025802;28;20030;-42
2023/06/24 03:50:53;;;;;;;5.43;4.30;;;16.10;99.90;;;;;;5021649;28;20132;-41
2023/06/24 03:53:18;;;;;;;7.35;5.85;;;16.10;99.90;;;;;;5025246;28;20109;-42
2023/06/24 03:55:44;;;;;;;6.20;4.45;;;16.00;99.90;;;;;;5023111;28;20034;-42
2023/06/24 03:58:10;;;;;;;5.72;4.32;;;16.00;99.90;;;;;;5019726;28;20678;-41
2023/06/24 04:00:40;;;;;;;7.65;4.20;;;16.00;99.90;;;;;;5022294;28;20380;-41
2023/06/24 04:03:07;;;;;;;5.60;4.30;;;16.00;99.90;;;;;;5023975;28;20061;-41
2023/06/24 04:05:33;;;;;;;6.90;4.30;;;15.90;99.90;;;;;;5020105;28;20505;-40
2023/06/24 04:07:58;;;;;;;4.95;3.83;;;15.90;99.90;;;;;;5018833;28;20030;-42
2023/06/24 04:10:24;;;;;;;4.35;3.95;;;15.90;99.90;;;;;;5024006;28;20498;-42
2023/06/24 04:12:50;;;;;;;6.28;4.38;;;15.90;99.90;;;;;;5017137;28;20029;-41
2023/06/24 04:15:15;;;;;;;6.53;4.22;;;15.80;99.90;;;;;;5021111;28;21063;-42
2023/06/24 04:17:41;;;;;;;6.32;4.00;;;15.80;99.90;;;;;;5015592;28;20155;-40
2023/06/24 04:20:09;;;;;;;5.32;4.10;;;15.80;99.90;;;;;;5022388;28;20562;-37
2023/06/24 04:22:37;;;;;;;5.88;3.90;;;15.80;99.90;;;;;;5021529;28;20475;-42
2023/06/24 04:25:05;;;;;;;4.97;3.80;;;15.80;99.90;;;;;;5022986;28;20151;-42
2023/06/24 04:27:33;;;;;;;4.88;3.83;;;15.80;99.90;;;;;;5024739;28;20037;-40
2023/06/24 04:29:59;;;;;;;5.90;4.18;;;15.80;99.90;;;;;;5023203;28;20037;-41
2023/06/24 04:32:24;;;;;;;5.18;3.78;;;15.70;99.90;;;;;;5019482;28;20388;-42
2023/06/24 04:34:50;;;;;;;6.20;3.90;;;15.80;99.90;;;;;;5020979;28;20036;-41
2023/06/24 04:37:15;;;;;;;5.47;4.10;;;15.80;99.90;;;;;;5018718;28;20034;-42
2023/06/24 04:39:43;;;;;;;4.45;3.67;;;15.80;99.90;;;;;;5019451;28;20041;-40
2023/06/24 04:42:09;;;;;;;5.25;4.22;;;15.80;99.90;;;;;;5017282;28;20042;-42
2023/06/24 04:44:35;;;;;;;5.55;3.85;;;15.80;99.90;;;;;;5024108;28;20033;-38
2023/06/24 04:47:00;;;;;;;4.82;3.72;;;15.80;99.90;;;;;;5020979;28;20036;-40
2023/06/24 04:49:26;;;;;;;4.90;3.80;;;15.80;99.90;;;;;;5019398;28;20042;-40
2023/06/24 04:51:52;;;;;;;4.85;3.92;;;15.90;99.90;;;;;;5021762;28;20037;-39
2023/06/24 04:54:17;;;;;;;5.22;4.45;;;15.90;99.90;;;;;;5022448;28;20026;-39
2023/06/24 04:56:45;;;;;;;6.72;4.55;;;16.00;99.90;;;;;;5024083;28;20025;-40
2023/06/24 04:59:10;;;;;;;5.47;4.30;;;16.10;99.90;;;;;;5020880;28;20060;-39
2023/06/24 05:01:36;;;;;;;5.75;4.40;;;16.20;99.90;;;;;;5023358;28;20041;-42
2023/06/24 05:04:01;;;;;;;6.13;4.50;;;16.30;99.90;;;;;;5022846;28;20040;-33
2023/06/24 05:06:27;;;;;;;5.85;4.90;;;16.40;99.90;;;;;;5023381;28;20475;-32
2023/06/24 05:08:53;;;;;;;5.43;4.57;;;16.50;99.90;;;;;;5018183;28;20127;-33
2023/06/24 05:11:18;;;;;;;5.55;4.47;;;16.60;99.90;;;;;;5020015;28;20021;-35
2023/06/24 05:13:44;;;;;;;6.43;4.72;;;16.70;99.90;;;;;;5023266;28;20045;-34
2023/06/24 05:16:10;;;;;;;6.85;5.13;;;16.70;99.90;;;;;;5024129;28;20079;-31
2023/06/24 05:18:36;;;;;;;6.00;4.45;;;16.80;99.90;;;;;;5022670;28;20029;-30
2023/06/24 05:21:01;;;;;;;5.97;4.35;;;16.80;99.90;;;;;;5024464;28;20402;-30
2023/06/24 05:23:27;;;;;;;5.75;4.28;;;16.90;99.90;;;;;;5025476;28;20601;-31
2023/06/24 05:25:53;;;;;;;5.85;4.38;;;17.00;99.90;;;;;;5025690;28;20671;-30
2023/06/24 05:28:18;;;;;;;6.30;4.22;;;17.10;99.90;;;;;;5024969;28;20498;-30
2023/06/24 05:30:48;;;;;;;5.95;4.72;;;17.20;99.90;;;;;;5024296;28;20114;-33
2023/06/24 05:33:13;;;;;;;6.78;4.43;;;17.20;99.90;;;;;;5025143;28;20030;-30
2023/06/24 05:35:42;;;;;;;6.40;4.18;;;17.30;99.90;;;;;;5025364;28;20033;-31
2023/06/24 05:38:07;;;;;;;5.50;4.38;;;17.40;99.90;;;;;;5020650;28;20116;-31
2023/06/24 05:40:33;;;;;;;5.97;4.07;;;17.50;99.90;;;;;;5023703;28;20542;-31
2023/06/24 05:42:59;;;;;;;7.10;4.53;;;17.60;99.90;;;;;;5021650;28;22302;-31
2023/06/24 05:45:24;;;;;;;6.22;4.53;;;17.70;99.90;;;;;;5024535;28;20025;-31
2023/06/24 05:47:50;;;;;;;7.07;4.60;;;17.60;99.90;;;;;;5022088;28;20042;-33
2023/06/24 05:50:15;;;;;;;6.35;4.63;;;17.70;99.90;;;;;;5029092;28;20486;-33
2023/06/24 05:52:41;;;;;;;5.75;4.63;;;17.90;99.90;;;;;;5022744;28;20498;-31
2023/06/24 05:55:07;;;;;;;6.22;4.57;;;17.90;99.90;;;;;;5024531;28;20031;-32
2023/06/24 05:57:32;;;;;;;5.63;4.28;;;18.00;99.90;;;;;;5028023;28;20021;-36
2023/06/24 05:59:58;;;;;;;5.90;4.43;;;18.20;99.90;;;;;;5026032;28;20125;-31
2023/06/24 06:02:24;;;;;;;6.03;4.40;;;18.40;99.90;;;;;;5031863;28;20041;-33
2023/06/24 06:04:50;;;;;;;7.38;5.13;;;18.50;99.90;;;;;;5026718;28;20033;-32
2023/06/24 06:07:16;;;;;;;5.35;4.18;;;18.50;99.90;;;;;;5024348;28;20060;-32
2023/06/24 06:09:41;;;;;;;7.05;5.32;;;18.60;99.90;;;;;;5028605;28;20116;-32
2023/06/24 06:12:08;;;;;;;6.68;4.68;;;18.60;99.90;;;;;;5026753;28;20057;-31
2023/06/24 06:14:33;;;;;;;7.65;4.80;;;18.70;99.90;;;;;;5024743;28;20045;-39
2023/06/24 06:16:59;;;;;;;6.07;4.80;;;18.80;99.90;;;;;;5020993;28;20026;-39
2023/06/24 06:19:24;;;;;;;6.18;4.57;;;19.00;99.90;;;;;;5025892;28;20017;-41
2023/06/24 06:21:51;;;;;;;6.38;4.32;;;19.00;99.90;;;;;;5021566;28;20041;-41
2023/06/24 06:24:17;;;;;;;7.25;4.72;;;19.20;99.90;;;;;;5022181;28;20030;-39
2023/06/24 06:26:43;;;;;;;5.50;4.60;;;19.10;99.90;;;;;;5022306;28;20037;-39
2023/06/24 06:29:10;;;;;;;6.25;4.82;;;19.00;99.90;;;;;;5025407;28;20394;-39
2023/06/24 06:31:35;;;;;;;5.35;4.70;;;18.90;99.90;;;;;;5023815;28;20619;-41
2023/06/24 06:34:01;;;;;;;6.40;4.53;;;19.20;99.90;;;;;;5022636;28;20033;-41
2023/06/24 06:36:27;;;;;;;6.68;4.70;;;19.30;99.90;;;;;;5022773;28;20376;-40
2023/06/24 06:38:53;;;;;;;7.93;5.03;;;19.40;99.90;;;;;;5026158;28;20033;-39
2023/06/24 06:41:24;;;;;;;5.90;4.50;;;19.40;99.90;;;;;;5023482;28;20029;-41
2023/06/24 06:43:52;;;;;;;6.07;4.70;;;19.40;99.90;;;;;;5005716;28;20046;-41
2023/06/24 06:46:18;;;;;;;5.80;4.40;;;19.40;99.90;;;;;;5001599;28;20027;-40
2023/06/24 06:48:44;;;;;;;6.75;5.13;;;19.60;99.90;;;;;;5004151;28;20395;-39
2023/06/24 06:51:09;;;;;;;5.80;4.82;;;19.60;99.90;;;;;;4999448;28;20038;-40
2023/06/24 06:53:35;;;;;;;6.85;5.20;;;19.70;99.90;;;;;;5005903;28;21551;-38
2023/06/24 06:56:00;;;;;;;6.30;4.70;;;20.00;99.90;;;;;;5005616;28;20027;-39
2023/06/24 06:58:26;;;;;;;5.30;4.72;;;20.10;99.90;;;;;;5001197;28;20025;-37
2023/06/24 07:00:52;;;;;;;4.90;4.13;;;20.10;99.90;;;;;;5002259;28;21303;-39
2023/06/24 07:03:17;;;;;;;6.10;4.38;;;20.20;99.90;;;;;;5003366;28;20096;-40
2023/06/24 07:05:43;;;;;;;5.35;4.20;;;20.20;99.90;;;;;;5003547;28;20033;-38
2023/06/24 07:08:08;;;;;;;5.70;4.32;;;20.40;99.90;;;;;;5004470;28;20399;-41
2023/06/24 07:10:34;;;;;;;5.60;4.10;;;20.50;99.90;;;;;;5002467;28;20108;-40
2023/06/24 07:13:00;;;;;;;6.82;4.55;;;20.50;99.90;;;;;;5001198;28;20026;-39
2023/06/24 07:15:26;;;;;;;6.15;4.45;;;20.70;99.90;;;;;;5004219;28;20161;-39
2023/06/24 07:17:53;;;;;;;5.88;4.45;;;20.80;99.90;;;;;;5002658;28;20958;-40
2023/06/24 07:20:19;;;;;;;8.30;4.63;;;21.00;99.90;;;;;;5002890;28;20388;-41
2023/06/24 07:22:45;;;;;;;4.85;4.10;;;20.70;99.90;;;;;;4986770;28;20030;-40
2023/06/24 07:25:11;;;;;;;5.93;4.70;;;20.90;99.90;;;;;;5005338;28;20145;-33
2023/06/24 07:27:36;;;;;;;7.03;4.32;;;21.00;99.90;;;;;;5001738;28;20419;-36
2023/06/24 07:30:03;;;;;;;4.78;3.60;;;20.90;99.90;;;;;;5002739;28;20037;-31
2023/06/24 07:32:29;;;;;;;3.92;3.20;;;21.00;99.90;;;;;;4999775;28;20037;-30
2023/06/24 07:34:55;;;;;;;4.55;3.40;;;21.20;99.90;;;;;;5006243;28;20547;-41
2023/06/24 07:37:20;;;;;;;4.03;3.28;;;20.80;99.90;;;;;;5005411;28;20022;-40
2023/06/24 07:39:46;;;;;;;4.53;3.28;;;21.00;99.90;;;;;;5004892;28;20041;-37
2023/06/24 07:42:11;;;;;;;3.97;3.35;;;21.10;99.90;;;;;;5011143;28;20121;-41
2023/06/24 07:44:39;;;;;;;3.88;3.10;;;20.80;99.90;;;;;;5020466;28;20038;-40
2023/06/24 07:47:06;;;;;;;4.25;3.40;;;20.70;99.90;;;;;;5024021;28;20026;-41
2023/06/24 07:49:31;;;;;;;4.35;3.33;;;20.90;99.90;;;;;;5022610;28;20041;-40
2023/06/24 07:51:57;;;;;;;3.60;3.13;;;21.00;99.90;;;;;;5019177;28;20466;-39
2023/06/24 07:54:22;;;;;;;4.32;3.55;;;21.30;99.90;;;;;;5018854;28;20026;-41
2023/06/24 07:56:48;;;;;;;4.38;2.97;;;21.20;99.90;;;;;;5019278;28;20029;-39
2023/06/24 07:59:13;;;;;;;3.88;3.10;;;21.30;99.90;;;;;;5019698;28;20021;-41
2023/06/24 08:01:39;;;;;;;4.50;3.45;;;21.40;99.90;;;;;;5017089;28;20570;-41
2023/06/24 08:04:04;;;;;;;4.88;3.30;;;21.50;99.90;;;;;;5021654;28;20075;-40
2023/06/24 08:06:31;;;;;;;4.18;3.70;;;21.50;99.90;;;;;;5024715;28;20029;-39
2023/06/24 08:08:56;;;;;;;5.40;3.70;;;21.80;99.90;;;;;;5024720;28;20565;-38
2023/06/24 08:11:22;;;;;;;4.05;3.53;;;22.00;99.90;;;;;;5017268;28;20099;-39
2023/06/24 08:13:47;;;;;;;4.72;3.72;;;21.90;99.90;;;;;;5020825;28;20072;-41
2023/06/24 08:16:17;;;;;;;5.63;3.90;;;21.90;99.90;;;;;;5022898;28;20037;-39
2023/06/24 08:18:42;;;;;;;5.38;3.72;;;22.00;99.90;;;;;;5018168;28;20025;-41
2023/06/24 08:21:08;;;;;;;4.85;3.75;;;22.20;99.90;;;;;;5019897;28;20929;-36
2023/06/24 08:23:33;;;;;;;5.38;4.13;;;22.20;99.90;;;;;;5021586;28;20026;-39
2023/06/24 08:25:59;;;;;;;6.18;3.60;;;22.40;99.90;;;;;;5020407;28;20036;-40
2023/06/24 08:29:02;;;;;;;4.95;3.40;;;22.70;99.90;;;;;;5019924;28;20061;-40
2023/06/24 08:31:28;;;;;;;4.45;3.90;;;22.60;99.90;;;;;;5018400;28;20523;-39
2023/06/24 08:33:54;;;;;;;5.65;3.55;;;22.40;99.90;;;;;;5018656;28;20088;-33
2023/06/24 08:36:23;;;;;;;4.80;3.70;;;22.30;99.90;;;;;;5026601;28;20033;-33
2023/06/24 08:38:49;;;;;;;5.53;3.70;;;22.50;99.90;;;;;;5023510;28;20121;-31
2023/06/24 08:41:14;;;;;;;4.97;3.78;;;22.50;99.90;;;;;;5023423;28;20159;-33
2023/06/24 08:43:40;;;;;;;4.95;3.92;;;22.30;99.90;;;;;;5023144;28;20053;-31
2023/06/24 08:46:07;;;;;;;5.90;4.30;;;21.90;99.90;;;;;;5022870;28;20053;-32
2023/06/24 08:48:45;;;;;;;4.93;3.50;;;21.70;99.90;;;;;;5021220;28;20029;-33
2023/06/24 08:51:13;;;;;;;4.43;3.75;;;21.60;99.90;;;;;;5018240;28;20044;-35
2023/06/24 08:53:41;;;;;;;6.45;4.50;;;21.60;99.90;;;;;;5020220;28;20034;-34
2023/06/24 08:56:06;;;;;;;6.15;4.07;;;21.90;99.90;;;;;;5017111;28;20052;-32
2023/06/24 08:58:33;;;;;;;4.78;4.15;;;21.60;99.90;;;;;;5023277;28;20029;-32
2023/06/24 09:00:59;;;;;;;5.47;4.47;;;21.40;99.90;;;;;;5016079;28;20048;-33
2023/06/24 09:03:24;;;;;;;4.63;4.07;;;21.40;99.90;;;;;;5020382;28;20056;-33
2023/06/24 09:05:50;;;;;;;4.97;4.10;;;21.30;99.90;;;;;;5022211;28;20021;-32
2023/06/24 09:08:16;;;;;;;4.60;3.92;;;21.50;99.90;;;;;;5024904;28;20021;-32
2023/06/24 09:10:41;;;;;;;4.65;4.13;;;21.50;99.90;;;;;;5023890;28;20026;-33
2023/06/24 09:13:07;;;;;;;6.18;4.45;;;21.50;99.90;;;;;;5021243;28;20022;-34
2023/06/24 09:15:34;;;;;;;5.15;4.07;;;21.70;99.90;;;;;;5023996;28;20034;-32
2023/06/24 09:18:01;;;;;;;5.17;4.67;;;22.00;99.90;;;;;;5022270;28;20032;-33
2023/06/24 09:20:28;;;;;;;6.22;4.43;;;22.10;99.90;;;;;;5020663;28;20573;-32
2023/06/24 09:23:02;;;;;;;4.83;4.10;;;21.80;99.90;;;;;;5020437;28;20033;-32
2023/06/24 09:25:28;;;;;;;4.28;3.88;;;22.00;99.90;;;;;;5003693;28;20033;-32
2023/06/24 09:27:55;;;;;;;5.88;4.22;;;22.60;99.90;;;;;;5021146;28;20052;-32
2023/06/24 09:30:21;;;;;;;5.38;4.40;;;23.00;99.90;;;;;;5026805;28;20025;-35
2023/06/24 09:32:48;;;;;;;5.15;4.32;;;22.90;99.90;;;;;;5023833;28;20033;-32
2023/06/24 09:35:17;;;;;;;5.18;3.67;;;22.40;99.90;;;;;;5022449;28;20021;-32
2023/06/24 09:37:43;;;;;;;5.63;4.00;;;22.20;99.90;;;;;;5022776;28;20101;-34
2023/06/24 09:40:10;;;;;;;4.88;4.38;;;22.20;99.90;;;;;;5025614;28;20046;-33
2023/06/24 09:42:35;;;;;;;5.78;4.88;;;21.90;99.90;;;;;;5026201;28;20053;-33
2023/06/24 09:45:05;;;;;;;4.93;4.43;;;22.00;99.90;;;;;;5025030;28;20038;-39
2023/06/24 09:47:31;;;;;;;7.07;4.13;;;22.20;99.90;;;;;;5024037;28;20036;-41
2023/06/24 09:49:56;;;;;;;7.18;4.30;;;22.20;99.90;;;;;;5027559;28;20037;-41
2023/06/24 09:52:22;;;;;;;5.63;3.92;;;22.40;99.90;;;;;;5023969;28;20029;-38
2023/06/24 09:54:51;;;;;;;8.05;3.97;;;22.60;99.90;;;;;;5022535;28;20379;-41
2023/06/24 09:57:21;;;;;;;4.82;3.90;;;23.30;99.90;;;;;;5024045;28;20643;-41
2023/06/24 09:59:48;;;;;;;6.55;4.95;;;23.90;99.90;;;;;;5025124;28;20566;-41
2023/06/24 10:02:16;;;;;;;7.40;4.55;;;23.90;99.90;;;;;;5023940;28;20037;-40
2023/06/24 10:04:43;;;;;;;6.25;4.68;;;23.40;99.90;;;;;;5022120;28;20037;-40
2023/06/24 10:07:09;;;;;;;5.47;4.90;;;23.50;99.90;;;;;;5004686;28;20181;-41
2023/06/24 10:09:34;;;;;;;6.60;4.28;;;23.70;99.90;;;;;;5021813;28;20128;-40
2023/06/24 10:12:01;;;;;;;7.88;5.38;;;23.50;99.90;;;;;;5022993;28;20030;-38
2023/06/24 10:14:26;;;;;;;5.88;5.00;;;23.40;99.90;;;;;;5025137;28;20030;-41
2023/06/24 10:17:04;;;;;;;5.90;5.15;;;23.40;99.90;;;;;;5019205;28;20824;-40
2023/06/24 10:19:29;;;;;;;6.03;4.78;;;23.60;99.90;;;;;;5025017;28;20535;-38
2023/06/24 10:21:59;;;;;;;6.60;4.53;;;23.60;99.90;;;;;;5025433;28;20141;-41
2023/06/24 10:24:54;;;;;;;4.65;4.05;;;23.70;99.90;;;;;;5023862;28;20087;-40
2023/06/24 10:27:22;;;;;;;5.15;4.18;;;23.60;99.90;;;;;;5019912;28;20037;-40
2023/06/24 10:30:03;;;;;;;5.65;4.43;;;23.10;99.90;;;;;;5023643;28;20430;-40
2023/06/24 10:32:41;;;;;;;5.45;4.30;;;22.70;99.90;;;;;;5017780;28;20032;-42
2023/06/24 10:35:07;;;;;;;6.95;4.90;;;22.80;99.90;;;;;;5024143;28;20030;-41
2023/06/24 10:37:33;;;;;;;5.35;4.22;;;23.10;99.90;;;;;;5020135;28;20382;-41
2023/06/24 10:40:00;;;;;;;4.10;3.70;;;22.80;99.90;;;;;;5018276;28;20040;-39
2023/06/24 10:42:34;;;;;;;4.35;3.95;;;22.60;99.90;;;;;;5020075;28;20049;-39
2023/06/24 10:45:14;;;;;;;6.95;4.03;;;22.70;99.90;;;;;;5023990;28;20038;-42
2023/06/24 10:47:56;;;;;;;4.15;3.65;;;23.00;99.90;;;;;;5027704;28;20103;-39
2023/06/24 10:50:23;;;;;;;4.20;3.80;;;22.80;99.90;;;;;;5021356;28;20041;-39
2023/06/24 10:52:55;;;;;;;4.70;4.00;;;22.70;99.90;;;;;;5021612;28;20072;-34
2023/06/24 10:55:24;;;;;;;3.95;3.55;;;22.40;99.90;;;;;;5022111;28;20116;-39
2023/06/24 10:57:50;;;;;;;4.45;3.63;;;22.30;99.90;;;;;;5021199;28;20039;-38
2023/06/24 11:00:16;;;;;;;4.95;4.10;;;22.70;99.90;;;;;;5024985;28;20029;-40
2023/06/24 11:02:41;;;;;;;4.85;4.07;;;23.30;99.90;;;;;;5020528;28;20038;-41
2023/06/24 11:05:08;;;;;;;5.68;3.97;;;23.80;99.90;;;;;;5023541;28;20033;-37
2023/06/24 11:07:36;;;;;;;4.50;4.07;;;23.80;99.90;;;;;;5022520;28;20473;-41
2023/06/24 11:10:04;;;;;;;;;;;23.90;99.90;;;;;;5018349;28;20122;-41
2023/06/24 11:12:32;;;;;;;2.83;2.63;;;23.90;99.90;;;;;;5022097;28;19912;-39
2023/06/24 11:15:00;;;;;;;3.47;3.17;;;24.10;99.90;;;;;;5026454;28;20033;-41
2023/06/24 11:17:26;;;;;;;;;;;24.20;99.90;;;;;;5026768;28;20052;-40
2023/06/24 11:19:53;;;;;;;3.88;2.63;;;24.40;99.90;;;;;;5024171;28;19917;-40
2023/06/24 11:22:19;;;;;;;3.88;2.60;;;24.10;99.90;;;;;;5023470;28;20048;-40
2023/06/24 11:24:44;;;;;;;2.83;2.53;;;24.30;99.90;;;;;;5023611;28;20030;-41
2023/06/24 11:27:10;;;;;;;3.03;2.70;;;24.40;99.90;;;;;;5020324;28;20116;-40
2023/06/24 11:29:36;;;;;;;4.03;3.63;;;24.60;99.90;;;;;;5020636;28;20048;-41
2023/06/24 11:32:02;;;;;;;4.13;3.33;;;24.50;99.90;;;;;;5021459;28;20061;-40
2023/06/24 11:34:29;;;;;;;3.20;2.90;;;24.40;99.90;;;;;;5024569;28;20051;-41
2023/06/24 11:36:54;;;;;;;3.13;2.83;;;24.40;99.90;;;;;;5021611;28;20021;-41
2023/06/24 11:39:25;;;;;;;5.40;3.63;;;24.90;99.90;;;;;;5020267;28;20037;-41
2023/06/24 11:41:52;;;;;;;4.55;3.40;;;25.00;99.90;;;;;;5015904;28;20045;-40
2023/06/24 11:44:23;;;;;;;3.97;3.57;;;24.70;99.90;;;;;;5020379;28;20034;-40
2023/06/24 11:46:49;;;;;;;3.53;3.22;;;25.00;99.90;;;;;;5021476;28;20036;-41
2023/06/24 11:49:15;;;;;;;4.28;3.58;;;25.00;99.90;;;;;;5024577;28;20389;-41
2023/06/24 11:51:49;;;;;;;4.60;3.53;;;24.90;99.90;;;;;;5019299;28;20056;-41
2023/06/24 11:54:17;;;;;;;5.65;3.70;;;24.30;99.90;;;;;;5021152;28;20088;-39
2023/06/24 11:56:43;;;;;;;;;;;23.70;99.90;;;;;;5022526;28;20021;-41
2023/06/24 11:59:20;;;;;;;4.38;3.90;;;23.80;99.90;;;;;;5023419;28;19913;-40
2023/06/24 12:01:56;;;;;;;4.13;3.70;;;24.00;99.90;;;;;;5019699;28;20045;-40
2023/06/24 12:04:28;;;;;;;4.18;3.70;;;24.20;99.90;;;;;;5022353;28;21859;-41
2023/06/24 12:06:54;;;;;;;4.18;3.65;;;24.40;99.90;;;;;;5025548;28;20140;-39
2023/06/24 12:09:20;;;;;;;4.70;3.30;;;24.40;99.90;;;;;;5021748;28;20140;-39
2023/06/24 12:11:45;;;;;;;3.63;3.33;;;24.50;99.90;;;;;;5020894;28;20032;-38
2023/06/24 12:14:11;;;;;;;3.67;3.20;;;24.90;99.90;;;;;;5017996;28;20021;-33
2023/06/24 12:16:37;;;;;;;4.07;3.00;;;24.90;99.90;;;;;;5022132;28;20022;-35
2023/06/24 12:19:03;;;;;;;4.20;3.00;;;25.30;99.90;;;;;;5016962;28;20104;-33
2023/06/24 12:21:29;;;;;;;3.58;3.22;;;25.30;99.90;;;;;;5021827;28;20097;-32
2023/06/24 12:23:54;;;;;;;5.43;3.28;;;25.90;99.90;;;;;;5021713;28;20029;-32
2023/06/24 12:26:20;;;;;;;3.50;3.20;;;26.40;99.90;;;;;;5023046;28;20144;-32
2023/06/24 12:28:45;;;;;;;3.97;3.55;;;26.10;99.90;;;;;;5021193;28;20096;-34
2023/06/24 12:31:11;;;;;;;5.45;3.22;;;25.60;99.90;;;;;;5008923;28;20033;-33
2023/06/24 12:33:37;;;;;;;3.33;3.03;;;25.30;99.90;;;;;;5023072;28;20037;-35
2023/06/24 12:36:03;;;;;;;3.90;2.90;;;25.60;99.90;;;;;;5018839;28;20519;-31
2023/06/24 12:38:28;;;;;;;3.22;2.92;;;26.60;99.90;;;;;;4998170;28;20764;-35
2023/06/24 12:40:54;;;;;;;3.83;3.28;;;26.50;99.90;;;;;;5026167;28;20056;-33
2023/06/24 12:43:26;;;;;;;5.65;3.70;;;26.10;99.90;;;;;;5017833;28;20049;-35
2023/06/24 12:45:52;;;;;;;4.13;3.28;;;25.70;99.90;;;;;;5021635;28;20707;-33
2023/06/24 12:48:17;;;;;;;3.47;3.17;;;25.40;99.90;;;;;;5021260;28;20082;-33